Burnsville, MN

1:37 AM CDT on May 04, 2015 (GMT -0500)
190 River Ridge Building | | Change Station
CLOSE
Current Station
Personal Weather Station
Location: Burnsville, MN
Elevation: 840 ft
Nearby Weather Stations

Elev 840 ft 44.78 °N, 93.28 °W | Updated 10 seconds ago

Partly Cloudy
Partly Cloudy
55.2 °F
Feels Like 55.2 °F
N
0.0
Wind Variable Wind from East
Gusts 0.0 mph

Today
High -- | Low -- °F
--% Chance of Precip.
Yesterday
High -- | Low -- °F
Precip. -- in
5:58 AM 8:21 PM
Full, 100% visible
Pressure 29.96 in
Visibility 10.0 miles
Clouds Mostly Cloudy 15000 ft
Overcast 30000 ft
Dew Point 47 °F
Humidity 75%
Rainfall 0.00 in
Snow Depth Not available.
UV 0 out of 12
Pollen 9.40 out of 12
Air Quality Not available.
Flu Activity Sporadic
METAR KMSP 040553Z 32005KT 10SM BKN150 OVC300 14/08 A2997 RMK AO2 SLP144 60004 T01440083 10189 20144 402830133 51027

More Conditions Fewer Conditions

Pressure 29.96 in
Visibility 10.0 miles
Clouds Mostly Cloudy 15000 ft
Overcast 30000 ft
Dew Point 47 °F
Humidity 75%
Rainfall 0.00 in
Snow Depth Not available.
UV 0 out of 12
Pollen 9.40 out of 12
Air Quality Not available.
Flu Activity Sporadic
METAR KMSP 040553Z 32005KT 10SM BKN150 OVC300 14/08 A2997 RMK AO2 SLP144 60004 T01440083 10189 20144 402830133 51027

More Conditions Fewer Conditions

Nepal has a long way to go to dig out and rebuild from a devastating earthquake. We have teamed up with several charities and organizations to make contributing to the relief effort as easy as possible.
How you can help: Portlight Strategies | Red Cross

10-Day Weather Forecast

Almanac

Astronomy

May. 04, 2015 Rise Set
Actual Time
Civil Twilight
Nautical Twilight
Astronomical Twilight
Moon
Length of Visible Light
Length of Day
Tomorrow will be .
, % of the Moon is Illuminated

Today's Extremes

State Highs State Lows

Community

WunderPhotos

Upload Photos

1,818,535 photos uploaded!

WunderBlogs® & News

Nearby

Air Quality

  Air Quality AQ Index Pollutant
Not available.

Snow Depth

Station Depth Elevation

Earthquake Activity

City Distance Mag. Time & Date
Minimum magnitude displayed is 2.5.

Coastal Water Temperatures

Place Temperature

Stations

Nearby Weather Stations

Station Location Temp. Windchill Dew Point Humidity Wind Precip. Elev Updated Type